createdAt,value
2022-11-02T00:00:00.233Z,1.5
2022-11-02T00:05:00.198Z,1.9
2022-11-02T00:10:00.190Z,1.8
2022-11-02T00:15:00.201Z,1.3
2022-11-02T00:20:00.215Z,1.9
2022-11-02T00:25:00.195Z,1.7
2022-11-02T00:30:00.221Z,1.6
2022-11-02T00:35:00.251Z,1.4
2022-11-02T00:40:00.198Z,1.4
2022-11-02T00:45:00.203Z,1.7
2022-11-02T00:50:00.203Z,1.5
2022-11-02T00:55:00.216Z,1.5
2022-11-02T01:00:00.207Z,1.6
2022-11-02T01:05:00.195Z,1.7
2022-11-02T01:10:00.197Z,1.4
2022-11-02T01:15:00.219Z,0.0
2022-11-02T01:20:00.184Z,1.6
2022-11-02T01:25:00.212Z,1.4
2022-11-02T01:30:00.242Z,1.7
2022-11-02T01:35:00.180Z,2.3
2022-11-02T01:40:00.203Z,1.2
2022-11-02T01:45:00.215Z,1.4
2022-11-02T01:50:00.223Z,1.2
2022-11-02T01:55:00.231Z,1.3
2022-11-02T02:00:00.197Z,0.9
2022-11-02T02:05:00.189Z,1.3
2022-11-02T02:10:00.200Z,1.1
2022-11-02T02:15:00.238Z,1.1
2022-11-02T02:20:00.179Z,0.8
2022-11-02T02:25:00.187Z,1.0
2022-11-02T02:30:00.198Z,0.7
2022-11-02T02:35:00.204Z,0.7
2022-11-02T02:40:00.169Z,0.8
2022-11-02T02:45:00.219Z,0.7
2022-11-02T02:50:00.192Z,0.8
2022-11-02T02:55:00.190Z,0.7
2022-11-02T03:00:00.214Z,1.0
2022-11-02T03:05:00.211Z,1.4
2022-11-02T03:10:00.216Z,0.5
2022-11-02T03:15:00.226Z,1.1
2022-11-02T03:20:00.200Z,1.4
2022-11-02T03:25:00.234Z,1.5
2022-11-02T03:30:00.213Z,1.5
2022-11-02T03:35:00.206Z,1.4
2022-11-02T03:40:00.188Z,1.3
2022-11-02T03:45:00.205Z,1.1
2022-11-02T03:50:00.184Z,0.6
2022-11-02T03:55:00.215Z,0.9
2022-11-02T04:00:00.240Z,1.2
2022-11-02T04:05:00.224Z,1.7
2022-11-02T04:10:00.198Z,1.3
2022-11-02T04:15:00.218Z,1.3
2022-11-02T04:20:00.212Z,1.6
2022-11-02T04:25:00.214Z,1.3
2022-11-02T04:30:00.195Z,1.9
2022-11-02T04:35:00.210Z,1.4
2022-11-02T04:40:00.222Z,1.6
2022-11-02T04:45:00.202Z,1.6
2022-11-02T04:50:00.202Z,2.4
2022-11-02T04:55:00.197Z,1.4
2022-11-02T05:00:00.238Z,1.6
2022-11-02T05:05:00.183Z,2.0
2022-11-02T05:10:00.215Z,1.7
2022-11-02T05:15:00.231Z,1.6
2022-11-02T05:20:00.198Z,1.6
2022-11-02T05:25:00.200Z,2.6
2022-11-02T05:30:00.202Z,2.0
2022-11-02T05:35:00.228Z,1.5
2022-11-02T05:40:00.211Z,2.1
2022-11-02T05:45:00.205Z,2.2
2022-11-02T05:50:00.187Z,2.2
2022-11-02T05:55:00.213Z,2.8
2022-11-02T06:00:00.270Z,2.7
2022-11-02T06:05:00.334Z,2.4
2022-11-02T06:10:00.193Z,2.1
2022-11-02T06:15:00.206Z,2.2
2022-11-02T06:20:00.208Z,1.3
2022-11-02T06:25:00.197Z,1.4
2022-11-02T06:30:00.254Z,2.3
2022-11-02T06:35:00.192Z,2.8
2022-11-02T06:40:00.218Z,1.8
2022-11-02T06:45:00.215Z,1.8
2022-11-02T06:50:00.214Z,1.8
2022-11-02T06:55:00.211Z,2.0
2022-11-02T07:00:00.349Z,2.0
2022-11-02T07:05:00.216Z,2.0
2022-11-02T07:10:00.243Z,2.1
2022-11-02T07:15:00.251Z,2.7
2022-11-02T07:20:00.244Z,1.5
2022-11-02T07:25:00.249Z,1.9
2022-11-02T07:30:00.224Z,1.5
2022-11-02T07:35:00.214Z,1.6
2022-11-02T07:40:00.207Z,1.8
2022-11-02T07:45:00.252Z,1.8
2022-11-02T07:50:00.234Z,1.7
2022-11-02T07:55:00.202Z,1.6
2022-11-02T08:00:00.246Z,1.4
2022-11-02T08:05:00.229Z,1.7
2022-11-02T08:10:00.231Z,1.5
2022-11-02T08:15:04.760Z,1.7
2022-11-02T08:20:00.207Z,1.8
2022-11-02T08:25:00.429Z,2.6
2022-11-02T08:30:00.239Z,1.7
2022-11-02T08:35:00.221Z,2.0
2022-11-02T08:40:00.234Z,1.3
2022-11-02T08:45:00.203Z,1.4
2022-11-02T08:50:00.222Z,1.6
2022-11-02T08:55:00.228Z,1.9
2022-11-02T09:00:00.262Z,1.7
2022-11-02T09:05:00.220Z,1.3
2022-11-02T09:10:00.271Z,1.5
2022-11-02T09:15:00.239Z,1.2
2022-11-02T09:20:00.207Z,2.5
2022-11-02T09:25:00.221Z,2.0
2022-11-02T09:30:00.258Z,2.0
2022-11-02T09:35:00.208Z,0.0
2022-11-02T09:40:00.210Z,2.0
2022-11-02T09:45:00.211Z,1.8
2022-11-02T09:50:00.223Z,1.8
2022-11-02T09:55:00.207Z,0.0
2022-11-02T10:00:00.216Z,1.6
2022-11-02T10:05:00.892Z,1.8
2022-11-02T10:10:00.213Z,1.5
2022-11-02T10:15:00.197Z,1.6
2022-11-02T10:20:00.232Z,1.4
2022-11-02T10:25:00.227Z,1.4
2022-11-02T10:30:00.269Z,1.4
2022-11-02T10:35:17.474Z,1.2
2022-11-02T10:40:00.205Z,1.5
2022-11-02T10:45:00.221Z,2.0
2022-11-02T10:50:00.239Z,1.9
2022-11-02T10:55:00.248Z,1.4
2022-11-02T11:00:00.298Z,1.3
2022-11-02T11:05:00.220Z,1.3
2022-11-02T11:10:00.228Z,2.0
2022-11-02T11:20:04.253Z,1.4
2022-11-02T11:25:00.450Z,1.5
2022-11-02T11:30:00.244Z,1.3
2022-11-02T11:35:00.247Z,1.7
2022-11-02T11:40:00.264Z,1.7
2022-11-02T11:45:00.263Z,1.5
2022-11-02T11:50:09.188Z,1.7
2022-11-02T11:55:00.251Z,2.0
2022-11-02T12:00:00.271Z,1.5
2022-11-02T12:05:00.823Z,1.9
2022-11-02T12:10:00.294Z,2.1
2022-11-02T12:15:05.494Z,1.3
2022-11-02T12:20:00.249Z,1.7
2022-11-02T12:25:00.199Z,1.4
2022-11-02T12:30:00.259Z,1.3
2022-11-02T12:35:27.209Z,1.9
2022-11-02T12:40:00.231Z,1.7
2022-11-02T12:45:00.230Z,2.0
2022-11-02T12:50:00.227Z,1.2
2022-11-02T12:55:00.220Z,1.3
2022-11-02T13:00:00.261Z,2.4
2022-11-02T13:05:00.246Z,1.8
2022-11-02T13:10:00.225Z,1.3
2022-11-02T13:15:00.237Z,1.3
2022-11-02T13:20:00.247Z,1.5
2022-11-02T13:25:00.229Z,2.1
2022-11-02T13:30:00.205Z,1.4
2022-11-02T13:35:00.263Z,1.5
2022-11-02T13:40:00.266Z,1.8
2022-11-02T13:45:00.277Z,1.9
2022-11-02T13:50:00.295Z,1.6
2022-11-02T13:55:00.345Z,1.7
2022-11-02T14:00:00.245Z,1.5
2022-11-02T14:05:00.285Z,1.6
2022-11-02T14:10:00.246Z,1.5
2022-11-02T14:15:00.217Z,1.3
2022-11-02T14:20:00.217Z,1.7
2022-11-02T14:25:00.222Z,1.5
2022-11-02T14:30:00.251Z,1.5
2022-11-02T14:35:00.204Z,1.3
2022-11-02T14:40:00.240Z,1.3
2022-11-02T14:45:00.233Z,1.6
2022-11-02T14:50:00.574Z,1.6
2022-11-02T14:55:00.262Z,1.2
2022-11-02T15:00:00.324Z,1.8
2022-11-02T15:05:00.231Z,2.3
2022-11-02T15:10:00.223Z,2.2
2022-11-02T15:15:00.256Z,1.9
2022-11-02T15:20:00.194Z,1.7
2022-11-02T15:25:00.272Z,1.7
2022-11-02T15:30:00.270Z,1.8
2022-11-02T15:35:00.292Z,2.1
2022-11-02T15:40:00.257Z,1.8
2022-11-02T15:45:05.611Z,2.1
2022-11-02T15:50:00.254Z,1.6
2022-11-02T15:55:00.248Z,1.6
2022-11-02T16:00:00.330Z,1.8
2022-11-02T16:05:00.234Z,2.1
2022-11-02T16:10:00.328Z,1.9
2022-11-02T16:15:00.206Z,1.9
2022-11-02T16:20:00.230Z,2.4
2022-11-02T16:25:00.241Z,2.2
2022-11-02T16:30:00.322Z,2.6
2022-11-02T16:35:00.227Z,3.0
2022-11-02T16:40:00.282Z,3.9
2022-11-02T16:45:00.287Z,3.2
2022-11-02T16:50:00.270Z,5.1
2022-11-02T16:55:00.238Z,3.7
2022-11-02T17:00:00.284Z,3.4
2022-11-02T17:05:04.502Z,3.9
2022-11-02T17:10:00.226Z,3.2
2022-11-02T17:15:00.248Z,3.7
2022-11-02T17:20:00.255Z,4.3
2022-11-02T17:25:02.993Z,3.2
2022-11-02T17:30:00.262Z,2.9
2022-11-02T17:35:00.219Z,2.8
2022-11-02T17:40:00.249Z,2.3
2022-11-02T17:45:00.450Z,2.3
2022-11-02T17:50:00.265Z,2.9
2022-11-02T17:55:00.316Z,3.0
2022-11-02T18:00:00.421Z,3.0
2022-11-02T18:05:00.232Z,2.5
2022-11-02T18:10:00.384Z,2.8
2022-11-02T18:15:00.233Z,2.7
2022-11-02T18:20:00.308Z,2.8
2022-11-02T18:25:00.249Z,2.7
2022-11-02T18:30:00.387Z,2.6
2022-11-02T18:35:00.192Z,4.6
2022-11-02T18:40:00.372Z,3.0
2022-11-02T18:45:00.246Z,2.5
2022-11-02T18:50:00.242Z,3.0
2022-11-02T18:55:00.281Z,2.8
2022-11-02T19:00:00.247Z,3.2
2022-11-02T19:05:00.340Z,4.4
2022-11-02T19:10:03.590Z,4.6
2022-11-02T19:15:00.218Z,3.6
2022-11-02T19:20:00.224Z,4.2
2022-11-02T19:25:00.210Z,4.8
2022-11-02T19:30:00.266Z,2.6
2022-11-02T19:35:00.245Z,2.7
2022-11-02T19:40:00.254Z,3.2
2022-11-02T19:45:00.260Z,2.6
2022-11-02T19:50:00.187Z,2.5
2022-11-02T19:55:00.222Z,3.3
2022-11-02T20:00:00.337Z,2.6
2022-11-02T20:05:00.291Z,5.3
2022-11-02T20:10:00.230Z,2.2
2022-11-02T20:15:00.221Z,3.3
2022-11-02T20:20:00.256Z,2.4
2022-11-02T20:25:00.240Z,3.1
2022-11-02T20:30:00.247Z,1.9
2022-11-02T20:35:00.528Z,4.3
2022-11-02T20:40:00.246Z,2.0
2022-11-02T20:45:00.245Z,1.9
2022-11-02T20:50:00.255Z,1.8
2022-11-02T20:55:00.321Z,2.3
2022-11-02T21:00:00.248Z,2.2
2022-11-02T21:05:00.228Z,2.4
2022-11-02T21:10:00.242Z,2.1
2022-11-02T21:15:00.237Z,2.2
2022-11-02T21:20:14.239Z,2.2
2022-11-02T21:25:00.284Z,2.1
2022-11-02T21:30:00.226Z,2.2
2022-11-02T21:35:00.204Z,2.7
2022-11-02T21:40:03.614Z,2.0
2022-11-02T21:45:00.246Z,1.9
2022-11-02T21:50:00.222Z,2.0
2022-11-02T21:55:00.221Z,2.1
2022-11-02T22:00:00.232Z,2.3
2022-11-02T22:05:00.239Z,2.4
2022-11-02T22:10:00.307Z,2.2
2022-11-02T22:15:00.236Z,1.8
2022-11-02T22:20:00.285Z,2.2
2022-11-02T22:25:00.223Z,2.4
2022-11-02T22:30:00.313Z,1.9
2022-11-02T22:35:00.297Z,2.2
2022-11-02T22:40:00.234Z,2.2
2022-11-02T22:45:00.251Z,2.8
2022-11-02T22:50:00.213Z,2.3
2022-11-02T22:55:00.229Z,1.7
2022-11-02T23:00:00.513Z,2.4
2022-11-02T23:05:00.236Z,2.7
2022-11-02T23:10:00.210Z,2.3
2022-11-02T23:15:00.234Z,2.7
2022-11-02T23:20:00.227Z,3.2
2022-11-02T23:25:00.245Z,2.5
2022-11-02T23:30:00.263Z,1.9
2022-11-02T23:35:00.241Z,2.3
2022-11-02T23:40:00.233Z,2.1
2022-11-02T23:45:00.215Z,2.8
2022-11-02T23:50:00.236Z,2.4
2022-11-02T23:55:00.460Z,2.0
